createdAt,value
2017-09-21T00:01:50.892Z,66.80
2017-09-21T00:04:19.152Z,66.60
2017-09-21T00:06:46.628Z,66.70
2017-09-21T00:09:14.106Z,66.80
2017-09-21T00:11:41.593Z,66.50
2017-09-21T00:14:09.076Z,66.70
2017-09-21T00:16:36.564Z,66.70
2017-09-21T00:19:04.837Z,66.70
2017-09-21T00:21:32.414Z,66.70
2017-09-21T00:23:59.899Z,66.60
2017-09-21T00:26:27.579Z,66.60
2017-09-21T00:28:55.053Z,66.70
2017-09-21T00:31:23.417Z,66.40
2017-09-21T00:33:50.889Z,66.40
2017-09-21T00:36:19.881Z,66.50
2017-09-21T00:38:47.356Z,66.40
2017-09-21T00:41:14.860Z,66.60
2017-09-21T00:43:42.359Z,66.30
2017-09-21T00:46:09.855Z,66.20
2017-09-21T00:48:37.341Z,66.50
2017-09-21T00:51:05.601Z,66.30
2017-09-21T00:53:33.117Z,66.10
2017-09-21T00:56:00.633Z,66.10
2017-09-21T00:58:28.850Z,65.70
2017-09-21T01:00:57.095Z,65.80
2017-09-21T01:03:24.574Z,65.90
2017-09-21T01:05:52.181Z,65.80
2017-09-21T01:08:20.428Z,65.60
2017-09-21T01:10:48.686Z,65.60
2017-09-21T01:13:16.960Z,65.70
2017-09-21T01:15:44.432Z,65.70
2017-09-21T01:18:12.022Z,65.70
2017-09-21T01:20:39.553Z,65.50
2017-09-21T01:23:07.028Z,65.60
2017-09-21T01:25:35.382Z,65.90
2017-09-21T01:28:02.871Z,65.90
2017-09-21T01:30:31.121Z,66.00
2017-09-21T01:32:58.610Z,66.00
2017-09-21T01:35:26.083Z,65.90
2017-09-21T01:37:54.329Z,66.50
2017-09-21T01:40:21.795Z,65.80
2017-09-21T01:42:50.166Z,66.20
2017-09-21T01:45:17.639Z,66.20
2017-09-21T01:47:45.873Z,66.20
2017-09-21T01:50:13.381Z,66.20
2017-09-21T01:52:40.851Z,65.90
2017-09-21T01:55:08.352Z,66.50
2017-09-21T01:57:36.597Z,66.20
2017-09-21T02:00:04.861Z,66.00
2017-09-21T02:02:33.103Z,66.20
2017-09-21T02:05:01.356Z,66.20
2017-09-21T02:07:28.824Z,66.20
2017-09-21T02:09:56.293Z,66.00
2017-09-21T02:12:23.768Z,66.40
2017-09-21T02:14:52.014Z,66.60
2017-09-21T02:17:19.519Z,66.50
2017-09-21T02:19:47.761Z,66.50
2017-09-21T02:22:15.278Z,66.60
2017-09-21T02:24:42.765Z,67.00
2017-09-21T02:27:10.238Z,67.30
2017-09-21T02:29:37.742Z,67.40
2017-09-21T02:32:05.979Z,67.10
2017-09-21T02:34:33.457Z,67.00
2017-09-21T02:37:01.054Z,67.20
2017-09-21T02:39:28.531Z,66.90
2017-09-21T02:41:56.009Z,66.60
2017-09-21T02:44:23.601Z,66.50
2017-09-21T02:46:51.098Z,66.30
2017-09-21T02:49:18.577Z,66.70
2017-09-21T02:51:46.080Z,66.90
2017-09-21T02:54:13.564Z,66.20
2017-09-21T02:56:41.054Z,66.00
2017-09-21T02:59:08.538Z,66.10
2017-09-21T03:01:36.029Z,66.60
2017-09-21T03:04:05.019Z,67.00
2017-09-21T03:06:32.575Z,66.70
2017-09-21T03:09:00.081Z,66.70
2017-09-21T03:11:27.572Z,66.90
2017-09-21T03:13:55.047Z,66.70
2017-09-21T03:16:22.651Z,66.60
2017-09-21T03:18:50.123Z,67.10
2017-09-21T03:21:17.608Z,67.50
2017-09-21T03:23:45.108Z,67.70
2017-09-21T03:26:12.602Z,67.90
2017-09-21T03:28:40.852Z,68.30
2017-09-21T03:31:08.324Z,68.70
2017-09-21T03:33:35.797Z,68.70
2017-09-21T03:36:03.302Z,68.70
2017-09-21T03:38:30.780Z,68.40
2017-09-21T03:40:58.262Z,68.50
2017-09-21T03:43:25.757Z,68.40
2017-09-21T03:45:53.301Z,68.50
2017-09-21T03:48:20.778Z,68.60
2017-09-21T03:50:49.063Z,68.90
2017-09-21T03:53:17.331Z,69.90
2017-09-21T03:55:44.834Z,69.20
2017-09-21T03:58:12.318Z,68.90
2017-09-21T04:00:40.698Z,69.20
2017-09-21T04:03:08.183Z,69.20
2017-09-21T04:05:35.669Z,69.50
2017-09-21T04:08:03.163Z,69.50
2017-09-21T04:10:30.719Z,70.00
2017-09-21T04:12:58.234Z,69.90
2017-09-21T04:15:25.700Z,70.00
2017-09-21T04:17:53.196Z,70.00
2017-09-21T04:20:20.796Z,69.90
2017-09-21T04:22:48.298Z,70.00
2017-09-21T04:25:15.786Z,69.80
2017-09-21T04:27:44.051Z,70.10
2017-09-21T04:30:11.532Z,70.10
2017-09-21T04:32:39.045Z,69.80
2017-09-21T04:35:07.282Z,69.80
2017-09-21T04:37:34.770Z,69.90
2017-09-21T04:40:02.269Z,70.20
2017-09-21T04:42:29.750Z,70.20
2017-09-21T04:44:57.236Z,69.90
2017-09-21T04:47:24.728Z,70.00
2017-09-21T04:49:52.200Z,70.30
2017-09-21T04:52:19.681Z,70.20
2017-09-21T04:54:47.164Z,70.30
2017-09-21T04:57:14.639Z,70.70
2017-09-21T04:59:42.120Z,70.60
2017-09-21T05:02:09.696Z,70.60
2017-09-21T05:04:37.169Z,70.60
2017-09-21T05:07:04.650Z,70.80
2017-09-21T05:09:32.201Z,70.80
2017-09-21T05:11:59.678Z,71.00
2017-09-21T05:14:27.311Z,70.90
2017-09-21T05:16:54.843Z,71.30
2017-09-21T05:19:22.319Z,71.10
2017-09-21T05:21:49.815Z,71.00
2017-09-21T05:24:17.304Z,70.90
2017-09-21T05:26:44.811Z,70.70
2017-09-21T05:29:13.097Z,70.60
2017-09-21T05:31:41.352Z,70.40
2017-09-21T05:34:08.849Z,70.40
2017-09-21T05:36:36.331Z,70.20
2017-09-21T05:39:03.828Z,70.10
2017-09-21T05:41:31.350Z,69.90
2017-09-21T05:43:58.830Z,69.70
2017-09-21T05:46:26.333Z,69.60
2017-09-21T05:48:53.880Z,69.40
2017-09-21T05:51:22.149Z,68.80
2017-09-21T05:53:49.646Z,69.00
2017-09-21T05:56:17.202Z,68.40
2017-09-21T05:58:44.682Z,67.90
2017-09-21T06:01:12.165Z,67.60
2017-09-21T06:03:39.653Z,67.10
2017-09-21T06:06:07.125Z,66.90
2017-09-21T06:08:34.761Z,66.70
2017-09-21T06:11:03.014Z,66.10
2017-09-21T06:13:30.493Z,66.10
2017-09-21T06:15:57.992Z,65.80
2017-09-21T06:18:25.483Z,65.20
2017-09-21T06:20:53.107Z,65.30
2017-09-21T06:23:20.606Z,65.20
2017-09-21T06:25:48.097Z,64.70
2017-09-21T06:28:15.622Z,64.60
2017-09-21T06:30:43.092Z,64.60
2017-09-21T06:33:10.620Z,63.90
2017-09-21T06:35:38.882Z,64.00
2017-09-21T06:38:06.443Z,64.00
2017-09-21T06:40:35.843Z,63.60
2017-09-21T06:43:03.366Z,63.30
2017-09-21T06:45:30.856Z,63.30
2017-09-21T06:47:58.337Z,63.10
2017-09-21T06:50:25.833Z,63.40
2017-09-21T06:52:53.414Z,62.80
2017-09-21T06:55:20.917Z,63.00
2017-09-21T06:57:48.475Z,62.60
2017-09-21T07:00:15.977Z,62.60
2017-09-21T07:02:43.460Z,62.40
2017-09-21T07:05:11.019Z,62.40
2017-09-21T07:07:38.495Z,62.30
2017-09-21T07:10:05.982Z,62.60
2017-09-21T07:12:33.477Z,61.80
2017-09-21T07:15:00.944Z,61.70
2017-09-21T07:17:28.486Z,61.90
2017-09-21T07:19:55.985Z,61.30
2017-09-21T07:22:24.218Z,60.60
2017-09-21T07:24:51.721Z,60.60
2017-09-21T07:27:19.204Z,60.00
2017-09-21T07:29:46.812Z,60.10
2017-09-21T07:32:15.070Z,59.20
2017-09-21T07:34:42.585Z,59.30
2017-09-21T07:37:10.086Z,58.70
2017-09-21T07:39:37.572Z,58.70
2017-09-21T07:42:05.833Z,58.20
2017-09-21T07:44:33.441Z,58.20
2017-09-21T07:47:00.920Z,57.70
2017-09-21T07:49:28.500Z,57.30
2017-09-21T07:51:55.994Z,56.70
2017-09-21T07:54:23.474Z,56.50
2017-09-21T07:56:51.083Z,56.60
2017-09-21T07:59:19.345Z,56.00
2017-09-21T08:01:46.862Z,56.20
2017-09-21T08:04:14.450Z,55.50
2017-09-21T08:06:42.705Z,54.50
2017-09-21T08:09:10.310Z,54.40
2017-09-21T08:11:37.801Z,54.10
2017-09-21T08:14:05.265Z,53.50
2017-09-21T08:16:32.766Z,52.30
2017-09-21T08:19:00.239Z,52.10
2017-09-21T08:21:27.801Z,53.20
2017-09-21T08:23:55.297Z,53.50
2017-09-21T08:26:22.772Z,53.20
2017-09-21T08:28:50.262Z,53.10
2017-09-21T08:31:17.866Z,52.70
2017-09-21T08:33:45.346Z,52.10
2017-09-21T08:36:12.817Z,51.90
2017-09-21T08:38:40.329Z,51.50
2017-09-21T08:41:08.572Z,52.40
2017-09-21T08:43:36.074Z,52.40
2017-09-21T08:46:03.616Z,52.80
2017-09-21T08:48:31.106Z,52.70
2017-09-21T08:50:58.754Z,51.90
2017-09-21T08:53:27.000Z,49.90
2017-09-21T08:55:54.698Z,49.80
2017-09-21T08:58:22.215Z,50.00
2017-09-21T09:00:49.711Z,49.00
2017-09-21T09:03:17.960Z,48.00
2017-09-21T09:05:45.478Z,48.00
2017-09-21T09:08:12.962Z,48.30
2017-09-21T09:10:40.481Z,48.90
2017-09-21T09:13:07.969Z,49.50
2017-09-21T09:15:35.534Z,49.80
2017-09-21T09:18:03.804Z,49.10
2017-09-21T09:20:31.340Z,49.00
2017-09-21T09:22:59.173Z,48.40
2017-09-21T09:25:26.692Z,47.80
2017-09-21T09:27:54.181Z,48.00
2017-09-21T09:30:22.548Z,47.00
2017-09-21T09:32:50.050Z,47.20
2017-09-21T09:35:17.598Z,46.10
2017-09-21T09:37:45.185Z,46.30
2017-09-21T09:40:12.662Z,46.10
2017-09-21T09:42:40.154Z,45.30
2017-09-21T09:45:07.669Z,44.20
2017-09-21T09:47:35.144Z,44.20
2017-09-21T09:50:02.644Z,42.60
2017-09-21T09:52:30.923Z,42.50
2017-09-21T09:54:58.409Z,42.30
2017-09-21T09:57:25.881Z,42.60
2017-09-21T09:59:53.495Z,41.40
2017-09-21T10:02:20.969Z,40.60
2017-09-21T10:04:48.447Z,38.90
2017-09-21T10:07:15.934Z,39.30
2017-09-21T10:09:43.401Z,39.30
2017-09-21T10:12:11.663Z,36.90
2017-09-21T10:14:39.128Z,36.80
2017-09-21T10:17:06.592Z,36.60
2017-09-21T10:19:34.220Z,37.70
2017-09-21T10:22:01.727Z,38.90
2017-09-21T10:24:29.185Z,38.20
2017-09-21T10:26:56.669Z,37.70
2017-09-21T10:29:24.130Z,34.90
2017-09-21T10:31:51.587Z,34.00
2017-09-21T10:34:20.010Z,30.70
2017-09-21T10:36:47.507Z,30.60
2017-09-21T10:39:14.981Z,28.50
2017-09-21T10:41:42.462Z,27.70
2017-09-21T10:44:09.950Z,26.60
2017-09-21T10:46:37.564Z,25.70
2017-09-21T10:49:05.031Z,26.00
2017-09-21T10:51:32.522Z,26.40
2017-09-21T10:54:00.111Z,27.10
2017-09-21T10:56:27.588Z,28.60
2017-09-21T10:58:55.051Z,28.80
2017-09-21T11:01:22.542Z,28.20
2017-09-21T11:03:50.016Z,27.30
2017-09-21T11:06:17.504Z,26.90
2017-09-21T11:08:45.341Z,26.60
2017-09-21T11:11:12.811Z,25.80
2017-09-21T11:13:41.088Z,28.10
2017-09-21T11:16:08.624Z,28.10
2017-09-21T11:18:36.867Z,31.50
2017-09-21T11:21:04.409Z,31.40
2017-09-21T11:23:31.867Z,32.20
2017-09-21T11:26:00.111Z,33.90
2017-09-21T11:28:27.605Z,33.90
2017-09-21T11:30:55.084Z,35.10
2017-09-21T11:33:22.567Z,36.00
2017-09-21T11:38:49.856Z,36.00
2017-09-21T11:41:17.344Z,34.60
2017-09-21T11:43:44.816Z,35.00
2017-09-21T11:46:12.330Z,35.90
2017-09-21T11:48:40.566Z,37.50
2017-09-21T11:51:08.052Z,37.50
2017-09-21T11:53:35.549Z,38.50
2017-09-21T11:56:03.044Z,38.10
2017-09-21T11:58:30.591Z,38.70
2017-09-21T12:00:58.095Z,39.80
2017-09-21T12:03:25.567Z,40.60
2017-09-21T12:05:53.043Z,40.20
2017-09-21T12:08:20.550Z,41.00
2017-09-21T12:10:48.016Z,41.20
2017-09-21T12:13:15.505Z,40.20
2017-09-21T12:15:42.993Z,41.20
2017-09-21T12:18:10.532Z,41.20
2017-09-21T12:20:38.140Z,41.40
2017-09-21T12:23:05.619Z,41.80
2017-09-21T12:25:33.157Z,41.60
2017-09-21T12:28:00.656Z,41.80
2017-09-21T12:30:28.967Z,43.20
2017-09-21T12:32:56.441Z,43.20
2017-09-21T12:35:24.810Z,44.90
2017-09-21T12:37:52.287Z,44.70
2017-09-21T12:40:19.761Z,44.70
2017-09-21T12:42:47.357Z,44.90
2017-09-21T12:45:14.829Z,45.80
2017-09-21T12:47:42.318Z,45.30
2017-09-21T12:50:09.790Z,44.70
2017-09-21T12:52:37.300Z,44.60
2017-09-21T12:55:04.776Z,43.50
2017-09-21T12:57:32.353Z,44.00
2017-09-21T12:59:59.846Z,43.80
2017-09-21T13:02:27.311Z,43.90
2017-09-21T13:04:54.952Z,43.40
2017-09-21T13:07:23.499Z,42.90
2017-09-21T13:09:50.972Z,42.80
2017-09-21T13:12:18.454Z,43.30
2017-09-21T13:14:45.925Z,43.40
2017-09-21T13:17:13.403Z,42.30
2017-09-21T13:19:40.997Z,42.80
2017-09-21T13:22:08.470Z,43.10
2017-09-21T13:24:35.949Z,42.70
2017-09-21T13:27:03.468Z,42.20
2017-09-21T13:29:30.943Z,43.60
2017-09-21T13:31:58.409Z,43.90
2017-09-21T13:34:25.913Z,44.10
2017-09-21T13:36:53.445Z,44.20
2017-09-21T13:39:21.013Z,44.20
2017-09-21T13:41:48.527Z,44.10
2017-09-21T13:44:16.000Z,44.60
2017-09-21T13:46:44.272Z,44.10
2017-09-21T13:49:11.759Z,44.10
2017-09-21T13:51:39.363Z,43.50
2017-09-21T13:54:07.625Z,43.30
2017-09-21T13:56:36.069Z,43.30
2017-09-21T13:59:03.666Z,43.00
2017-09-21T14:01:31.151Z,43.10
2017-09-21T14:03:58.622Z,43.60
2017-09-21T14:06:26.869Z,43.90
2017-09-21T14:08:54.415Z,43.80
2017-09-21T14:11:21.889Z,43.40
2017-09-21T14:13:50.171Z,43.80
2017-09-21T14:16:17.644Z,43.80
2017-09-21T14:18:45.238Z,43.50
2017-09-21T14:21:12.694Z,44.50
2017-09-21T14:23:40.151Z,43.50
2017-09-21T14:26:07.652Z,43.80
2017-09-21T14:28:35.144Z,43.80
2017-09-21T14:31:02.748Z,43.70
2017-09-21T14:33:30.236Z,43.70
2017-09-21T14:35:58.480Z,43.90
2017-09-21T14:38:25.966Z,43.90
2017-09-21T14:40:53.563Z,44.10
2017-09-21T14:43:21.048Z,44.10
2017-09-21T14:45:48.538Z,44.10
2017-09-21T14:48:16.026Z,43.90
2017-09-21T14:50:43.515Z,43.80
2017-09-21T14:53:11.109Z,43.00
2017-09-21T14:55:38.559Z,42.50
2017-09-21T14:58:06.055Z,43.40
2017-09-21T15:00:33.545Z,43.30
2017-09-21T15:03:01.016Z,43.40
2017-09-21T15:05:28.515Z,43.10
2017-09-21T15:07:56.010Z,43.30
2017-09-21T15:10:24.246Z,43.70
2017-09-21T15:12:51.825Z,43.70
2017-09-21T15:15:19.284Z,43.80
2017-09-21T15:17:47.644Z,44.40
2017-09-21T15:20:15.139Z,44.30
2017-09-21T15:22:42.618Z,44.40
2017-09-21T15:25:10.130Z,43.80
2017-09-21T15:27:37.584Z,44.80
2017-09-21T15:30:05.067Z,44.10
2017-09-21T15:32:32.658Z,44.40
2017-09-21T15:35:00.127Z,44.10
2017-09-21T15:37:27.628Z,43.60
2017-09-21T15:39:55.219Z,43.80
2017-09-21T15:42:22.711Z,44.00
2017-09-21T15:44:50.207Z,43.70
2017-09-21T15:47:17.708Z,43.70
2017-09-21T15:49:45.216Z,43.50
2017-09-21T15:52:12.696Z,43.40
2017-09-21T15:54:40.345Z,43.30
2017-09-21T15:57:08.718Z,43.70
2017-09-21T15:59:36.345Z,43.70
2017-09-21T16:02:04.590Z,45.60
2017-09-21T16:04:32.084Z,45.50
2017-09-21T16:06:59.677Z,46.00
2017-09-21T16:09:27.152Z,46.50
2017-09-21T16:11:54.617Z,46.10
2017-09-21T16:14:22.111Z,46.50
2017-09-21T16:16:49.580Z,47.00
2017-09-21T16:19:17.085Z,47.40
2017-09-21T16:21:44.622Z,47.30
2017-09-21T16:24:12.084Z,47.50
2017-09-21T16:26:40.315Z,48.40
2017-09-21T16:29:08.139Z,48.30
2017-09-21T16:31:35.618Z,49.00
2017-09-21T16:34:03.084Z,48.20
2017-09-21T16:36:31.687Z,48.60
2017-09-21T16:39:00.319Z,48.80
2017-09-21T16:41:27.818Z,48.60
2017-09-21T16:43:55.350Z,49.00
2017-09-21T16:46:22.836Z,48.90
2017-09-21T16:48:50.392Z,49.00
2017-09-21T16:51:18.626Z,49.50
2017-09-21T16:53:46.108Z,49.40
2017-09-21T16:56:13.721Z,49.80
2017-09-21T16:58:41.198Z,50.00
2017-09-21T17:01:08.759Z,49.90
2017-09-21T17:03:36.985Z,50.70
2017-09-21T17:06:04.601Z,50.70
2017-09-21T17:08:32.172Z,50.40
2017-09-21T17:10:59.696Z,50.70
2017-09-21T17:13:27.242Z,51.10
2017-09-21T17:15:55.604Z,51.30
2017-09-21T17:18:23.098Z,51.10
2017-09-21T17:20:50.574Z,51.30
2017-09-21T17:23:18.130Z,51.50
2017-09-21T17:25:46.410Z,51.20
2017-09-21T17:28:13.905Z,51.20
2017-09-21T17:30:41.374Z,51.20
2017-09-21T17:33:08.838Z,51.00
2017-09-21T17:35:37.241Z,51.10
2017-09-21T17:38:04.721Z,51.30
2017-09-21T17:40:32.261Z,51.30
2017-09-21T17:43:00.516Z,52.20
2017-09-21T17:45:28.166Z,52.30
2017-09-21T17:47:55.647Z,52.50
2017-09-21T17:50:23.131Z,52.80
2017-09-21T17:52:50.714Z,53.20
2017-09-21T17:55:18.208Z,54.00
2017-09-21T17:57:45.795Z,54.00
2017-09-21T18:00:13.274Z,54.20
2017-09-21T18:02:40.746Z,55.20
2017-09-21T18:05:08.242Z,54.70
2017-09-21T18:07:35.725Z,55.00
2017-09-21T18:10:03.219Z,55.50
2017-09-21T18:12:30.685Z,55.80
2017-09-21T18:14:58.278Z,56.00
2017-09-21T18:17:25.750Z,56.00
2017-09-21T18:19:53.230Z,56.30
2017-09-21T18:22:20.833Z,56.30
2017-09-21T18:24:48.303Z,56.60
2017-09-21T18:27:15.806Z,56.90
2017-09-21T18:29:43.311Z,57.20
2017-09-21T18:32:11.564Z,57.70
2017-09-21T18:34:39.025Z,57.70
2017-09-21T18:37:06.516Z,57.90
2017-09-21T18:39:34.223Z,58.10
2017-09-21T18:42:01.699Z,58.40
2017-09-21T18:44:29.253Z,58.20
2017-09-21T18:46:56.760Z,58.50
2017-09-21T18:49:24.999Z,58.80
2017-09-21T18:51:52.482Z,58.80
2017-09-21T18:54:20.720Z,59.10
2017-09-21T18:56:48.272Z,59.00
2017-09-21T18:59:15.771Z,59.40
2017-09-21T19:01:43.247Z,59.60
2017-09-21T19:04:10.772Z,59.70
2017-09-21T19:06:38.283Z,59.90
2017-09-21T19:09:05.784Z,59.90
2017-09-21T19:11:33.299Z,60.20
2017-09-21T19:14:00.788Z,60.40
2017-09-21T19:16:28.398Z,60.50
2017-09-21T19:18:55.904Z,60.20
2017-09-21T19:21:23.397Z,60.10
2017-09-21T19:23:50.909Z,59.90
2017-09-21T19:26:18.409Z,60.40
2017-09-21T19:28:46.754Z,59.80
2017-09-21T19:31:14.357Z,59.60
2017-09-21T19:33:41.864Z,59.60
2017-09-21T19:36:09.371Z,59.90
2017-09-21T19:38:37.644Z,59.80
2017-09-21T19:41:05.253Z,59.70
2017-09-21T19:43:33.559Z,59.30
2017-09-21T19:46:01.237Z,59.20
2017-09-21T19:48:29.602Z,59.30
2017-09-21T19:50:57.071Z,59.20
2017-09-21T19:53:24.556Z,59.10
2017-09-21T19:55:52.132Z,59.00
2017-09-21T19:58:20.406Z,59.00
2017-09-21T20:00:47.887Z,58.90
2017-09-21T20:03:15.431Z,58.80
2017-09-21T20:05:42.928Z,59.00
2017-09-21T20:08:10.425Z,58.90
2017-09-21T20:10:37.945Z,59.40
2017-09-21T20:13:05.429Z,59.80
2017-09-21T20:15:33.062Z,59.50
2017-09-21T20:18:01.319Z,59.30
2017-09-21T20:20:28.891Z,59.30
2017-09-21T20:22:57.267Z,60.10
2017-09-21T20:25:24.768Z,59.50
2017-09-21T20:27:53.107Z,59.20
2017-09-21T20:30:21.371Z,59.10
2017-09-21T20:32:48.878Z,59.10
2017-09-21T20:35:17.140Z,59.30
2017-09-21T20:37:44.629Z,59.30
2017-09-21T20:40:12.260Z,59.30
2017-09-21T20:42:39.726Z,59.50
2017-09-21T20:45:07.970Z,59.90
2017-09-21T20:47:35.453Z,59.90
2017-09-21T20:50:03.042Z,60.10
2017-09-21T20:52:30.541Z,60.60
2017-09-21T20:54:58.804Z,60.80
2017-09-21T20:57:26.302Z,60.80
2017-09-21T20:59:54.555Z,61.50
2017-09-21T21:02:22.066Z,62.20
2017-09-21T21:04:49.549Z,61.60
2017-09-21T21:07:17.011Z,61.70
2017-09-21T21:09:44.509Z,61.70
2017-09-21T21:12:11.995Z,61.80
2017-09-21T21:14:39.497Z,62.10
2017-09-21T21:17:06.977Z,62.30
2017-09-21T21:19:58.210Z,62.60
2017-09-21T21:22:25.717Z,62.60
2017-09-21T21:24:53.195Z,62.80
2017-09-21T21:27:20.713Z,63.20
2017-09-21T21:29:48.189Z,63.40
2017-09-21T21:32:15.739Z,63.40
2017-09-21T21:34:43.221Z,63.70
2017-09-21T21:37:10.792Z,63.90
2017-09-21T21:39:39.194Z,64.00
2017-09-21T21:42:06.795Z,64.30
2017-09-21T21:44:34.320Z,64.00
2017-09-21T21:47:01.810Z,64.30
2017-09-21T21:49:29.427Z,63.90
2017-09-21T21:51:56.922Z,64.60
2017-09-21T21:54:24.525Z,64.00
2017-09-21T21:56:52.786Z,63.90
2017-09-21T21:59:20.290Z,64.10
2017-09-21T22:01:48.556Z,64.10
2017-09-21T22:04:16.084Z,64.10
2017-09-21T22:06:43.591Z,64.00
2017-09-21T22:09:11.120Z,64.30
2017-09-21T22:11:38.629Z,64.20
2017-09-21T22:14:06.111Z,63.80
2017-09-21T22:16:33.622Z,64.20
2017-09-21T22:19:02.928Z,63.80
2017-09-21T22:21:31.128Z,63.80
2017-09-21T22:23:58.735Z,63.80
2017-09-21T22:26:26.213Z,63.50
2017-09-21T22:28:53.705Z,64.10
2017-09-21T22:31:21.297Z,64.20
2017-09-21T22:33:48.786Z,64.90
2017-09-21T22:36:16.269Z,65.40
2017-09-21T22:38:44.546Z,65.60
2017-09-21T22:41:12.040Z,65.60
2017-09-21T22:43:39.540Z,65.40
2017-09-21T22:46:07.026Z,65.30
2017-09-21T22:48:35.308Z,65.10
2017-09-21T22:51:02.855Z,65.10
2017-09-21T22:53:30.369Z,65.10
2017-09-21T22:55:57.872Z,65.10
2017-09-21T22:58:26.273Z,65.40
2017-09-21T23:00:53.760Z,65.40
2017-09-21T23:03:21.266Z,65.30
2017-09-21T23:05:49.566Z,65.30
2017-09-21T23:08:17.825Z,65.30
2017-09-21T23:10:45.351Z,65.30
2017-09-21T23:13:13.649Z,65.10
2017-09-21T23:15:42.839Z,64.90
2017-09-21T23:18:10.322Z,64.90
2017-09-21T23:20:37.840Z,64.90
2017-09-21T23:23:05.331Z,65.20
2017-09-21T23:25:33.622Z,65.40
2017-09-21T23:28:02.009Z,65.50
2017-09-21T23:30:29.548Z,65.50
2017-09-21T23:32:57.045Z,65.50
2017-09-21T23:35:24.579Z,65.60
2017-09-21T23:37:53.585Z,65.70
2017-09-21T23:40:21.995Z,65.90
2017-09-21T23:42:49.472Z,65.60
2017-09-21T23:45:16.958Z,65.70
2017-09-21T23:47:44.478Z,65.50
2017-09-21T23:50:12.732Z,65.70
2017-09-21T23:52:40.223Z,65.60
2017-09-21T23:55:07.837Z,65.50
2017-09-21T23:57:36.088Z,65.80
